If you wish to contribute or participate in the discussions about articles you are invited to join SKYbrary as a registered user

 Actions

Adelaide International Airport

From SKYbrary Wiki

YPAD
Airport
ICAO: YPAD – IATA: ADL
Summary
Name Adelaide International Airport
Region Asia and Pacific
Territory Christmas Island CX.gif
Location , South Australia
Serving Adelaide
Elevation 6.096 m
20 ft
20 ft6.096 m
Type medium airport
Coordinates -34° 56' 42", 138° 31' 50.0016"
Runways
Designator Length Width Surface ROPS
5/23 3100 m10,170.604 ft 45 m147.638 ft ASP yes/yes
12/30 1652 m5,419.948 ft 45 m147.638 ft ASP yes/yes
METAR
Observation YPAD 132222Z 21014KT 9999 BKN011 BKN029 19/15 Q1011 FM2230 20010KT 9999 -SHRA BKN025 INTER 2222/2300 5000 DZ FEW008 BKN012
Station Adelaide Airport
Date/Time 13 December 2017 22:22:00
Wind direction 210°
Wind speed 14 kts
Lowest cloud amount broken clouds
Temperature 19°C
Dew point 15°C
Humidity 77%
QNH 1011 hPa
Weather condition n/a